Time;durP1;ratioP1;P1;durP2;ratioP2;P2;SDS_P1;SDS_P2;PMS_P1;PMS_P2;Temp;Humidity;BMP_temperature;BMP_pressure;BME280_temperature;BME280_humidity;BME280_pressure;Samples;Min_cycle;Max_cycle;Signal;HPM_P1;HPM_P2
2024/01/27 00:01:33;;;;;;;23.70;4.40;;;4.60;99.90;;;;;;5158147;27;20187;-76
2024/01/27 00:03:59;;;;;;;26.20;4.70;;;4.50;99.90;;;;;;5139421;27;20470;-76
2024/01/27 00:06:25;;;;;;;36.63;5.13;;;4.50;99.90;;;;;;5158045;27;20039;-76
2024/01/27 00:08:50;;;;;;;28.20;5.33;;;4.50;99.90;;;;;;5157853;27;20047;-76
2024/01/27 00:11:16;;;;;;;35.47;5.03;;;4.50;99.90;;;;;;5139601;27;20050;-76
2024/01/27 00:13:42;;;;;;;23.83;3.73;;;4.50;99.90;;;;;;5157395;27;20091;-77
2024/01/27 00:16:09;;;;;;;27.50;4.20;;;4.50;99.90;;;;;;5156671;27;20069;-76
2024/01/27 00:18:38;;;;;;;26.77;4.63;;;4.50;99.90;;;;;;5139521;27;20389;-76
2024/01/27 00:21:05;;;;;;;22.98;3.75;;;4.50;99.90;;;;;;5139038;27;20039;-76
2024/01/27 00:23:32;;;;;;;25.42;5.28;;;4.50;99.90;;;;;;5157506;27;20046;-76
2024/01/27 00:25:58;;;;;;;23.65;5.30;;;4.40;99.90;;;;;;5122231;27;20130;-76
2024/01/27 00:28:24;;;;;;;24.52;4.65;;;4.40;99.90;;;;;;5157626;27;20050;-76
2024/01/27 00:30:50;;;;;;;26.63;4.30;;;4.40;99.90;;;;;;5157627;27;20049;-76
2024/01/27 00:33:15;;;;;;;30.53;4.70;;;4.40;99.90;;;;;;5157432;27;20389;-76
2024/01/27 00:35:41;;;;;;;23.37;4.97;;;4.30;99.90;;;;;;5157251;27;20304;-76
2024/01/27 00:38:07;;;;;;;30.75;5.10;;;4.40;99.90;;;;;;5157361;27;20053;-76
2024/01/27 00:40:33;;;;;;;24.73;4.67;;;4.40;99.90;;;;;;5157531;27;20047;-77
2024/01/27 00:42:59;;;;;;;25.10;4.30;;;4.40;99.90;;;;;;5157296;27;20046;-76
2024/01/27 00:45:27;;;;;;;21.77;4.03;;;4.40;99.90;;;;;;5157642;27;20398;-77
2024/01/27 00:47:53;;;;;;;25.15;4.40;;;4.30;99.90;;;;;;5157190;27;20130;-73
2024/01/27 00:50:18;;;;;;;24.17;4.73;;;4.30;99.90;;;;;;5157651;27;20501;-76
2024/01/27 00:52:44;;;;;;;21.17;4.27;;;4.30;99.90;;;;;;5156894;27;20038;-76
2024/01/27 00:55:10;;;;;;;30.87;5.30;;;4.30;99.90;;;;;;5156959;27;20108;-76
2024/01/27 00:57:38;;;;;;;27.57;5.13;;;4.30;99.90;;;;;;5157128;27;20394;-76
2024/01/27 01:00:06;;;;;;;29.05;4.63;;;4.30;99.90;;;;;;5138670;27;20086;-76
2024/01/27 01:02:32;;;;;;;31.05;4.78;;;4.30;99.90;;;;;;5157031;27;20112;-76
2024/01/27 01:04:58;;;;;;;27.73;4.07;;;4.30;99.90;;;;;;5156776;27;20039;-76
2024/01/27 01:07:24;;;;;;;32.17;6.33;;;4.30;99.90;;;;;;5156909;27;20112;-76
2024/01/27 01:09:49;;;;;;;29.87;4.60;;;4.30;99.90;;;;;;5138569;27;20058;-76
2024/01/27 01:12:15;;;;;;;25.30;4.43;;;4.30;99.90;;;;;;5156558;27;20050;-76
2024/01/27 01:14:42;;;;;;;29.90;3.73;;;4.30;99.90;;;;;;5156694;27;20034;-76
2024/01/27 01:17:08;;;;;;;27.83;4.97;;;4.20;99.90;;;;;;5156114;27;20545;-76
2024/01/27 01:19:34;;;;;;;27.87;4.10;;;4.20;99.90;;;;;;5156926;27;20074;-76
2024/01/27 01:21:59;;;;;;;19.90;3.87;;;4.20;99.90;;;;;;5137992;27;20474;-76
2024/01/27 01:24:25;;;;;;;22.50;3.50;;;4.20;99.90;;;;;;5138151;27;20047;-77
2024/01/27 01:26:51;;;;;;;33.70;4.67;;;4.20;99.90;;;;;;5137461;27;20078;-76
2024/01/27 01:29:16;;;;;;;24.17;4.10;;;4.20;99.90;;;;;;5156235;27;20049;-77
2024/01/27 01:31:43;;;;;;;27.53;3.97;;;4.20;99.90;;;;;;5156358;27;20046;-76
2024/01/27 01:34:08;;;;;;;32.85;4.30;;;4.20;99.90;;;;;;5156036;27;20055;-75
2024/01/27 01:36:34;;;;;;;23.63;4.87;;;4.20;99.90;;;;;;5156126;27;20099;-76
2024/01/27 01:39:00;;;;;;;23.70;4.03;;;4.20;99.90;;;;;;5137661;27;20035;-75
2024/01/27 01:41:25;;;;;;;28.73;4.53;;;4.20;99.90;;;;;;5156238;27;20042;-76
2024/01/27 01:43:51;;;;;;;27.30;4.73;;;4.20;99.90;;;;;;5120696;27;20054;-76
2024/01/27 01:46:18;;;;;;;29.70;5.27;;;4.20;99.90;;;;;;5137004;27;20078;-76
2024/01/27 01:48:44;;;;;;;22.80;3.42;;;4.20;99.90;;;;;;5155968;27;20047;-76
2024/01/27 01:51:11;;;;;;;27.10;4.82;;;4.20;99.90;;;;;;5155773;27;20046;-76
2024/01/27 01:53:37;;;;;;;29.65;4.60;;;4.10;99.90;;;;;;5155878;27;20054;-76
2024/01/27 01:56:04;;;;;;;29.83;3.83;;;4.10;99.90;;;;;;5155541;27;20107;-76
2024/01/27 01:58:34;;;;;;;30.00;4.28;;;4.10;99.90;;;;;;5155805;27;20050;-76
2024/01/27 02:01:00;;;;;;;34.72;6.03;;;4.10;99.90;;;;;;5137600;27;20042;-77
2024/01/27 02:03:26;;;;;;;37.05;6.20;;;4.10;99.90;;;;;;5155716;27;20042;-76
2024/01/27 02:05:52;;;;;;;27.05;4.90;;;4.10;99.90;;;;;;5155619;27;20039;-76
2024/01/27 02:08:18;;;;;;;25.80;3.40;;;4.10;99.90;;;;;;5137185;27;20043;-76
2024/01/27 02:10:45;;;;;;;24.87;3.63;;;4.10;99.90;;;;;;5155636;27;20541;-76
2024/01/27 02:13:18;;;;;;;27.40;4.78;;;4.10;99.90;;;;;;5155341;27;20053;-76
2024/01/27 02:15:44;;;;;;;21.65;3.35;;;4.10;99.90;;;;;;5155358;27;20035;-76
2024/01/27 02:18:10;;;;;;;26.47;3.80;;;4.10;99.90;;;;;;5155282;27;20045;-76
2024/01/27 02:20:37;;;;;;;23.77;3.87;;;4.10;99.90;;;;;;5155343;27;20834;-76
2024/01/27 02:23:04;;;;;;;30.25;4.55;;;4.10;99.90;;;;;;5155328;27;20046;-76
2024/01/27 02:25:30;;;;;;;36.53;5.10;;;4.10;99.90;;;;;;5155335;27;20038;-76
2024/01/27 02:27:56;;;;;;;29.55;4.65;;;4.10;99.90;;;;;;5137293;27;20129;-77
2024/01/27 02:30:22;;;;;;;32.07;4.07;;;4.10;99.90;;;;;;5154964;27;20130;-76
2024/01/27 02:32:48;;;;;;;30.63;4.60;;;4.10;99.90;;;;;;5155173;27;20039;-76
2024/01/27 02:35:14;;;;;;;23.33;4.27;;;4.10;99.90;;;;;;5154742;27;20050;-76
2024/01/27 02:37:40;;;;;;;33.08;4.63;;;4.10;99.90;;;;;;5154469;27;20050;-76
2024/01/27 02:40:07;;;;;;;36.75;3.95;;;4.10;99.90;;;;;;5154911;27;20473;-76
2024/01/27 02:42:33;;;;;;;29.23;5.85;;;4.10;99.90;;;;;;5136598;27;20163;-76
2024/01/27 02:44:59;;;;;;;23.07;3.80;;;4.10;99.90;;;;;;5155041;27;20046;-76
2024/01/27 02:47:24;;;;;;;31.93;4.17;;;4.10;99.90;;;;;;5154724;27;20078;-76
2024/01/27 02:49:50;;;;;;;38.23;4.70;;;4.10;99.90;;;;;;5154643;27;20043;-77
2024/01/27 02:52:16;;;;;;;30.50;4.03;;;4.10;99.90;;;;;;5154772;27;20095;-76
2024/01/27 02:54:41;;;;;;;23.27;4.27;;;4.10;99.90;;;;;;5154805;27;20038;-76
2024/01/27 02:57:07;;;;;;;33.30;4.83;;;4.10;99.90;;;;;;5154722;27;20034;-75
2024/01/27 02:59:33;;;;;;;22.13;3.80;;;4.10;99.90;;;;;;5155028;27;20053;-76
2024/01/27 03:01:59;;;;;;;28.93;5.07;;;4.10;99.90;;;;;;5136649;27;20077;-76
2024/01/27 03:04:24;;;;;;;25.30;4.77;;;4.00;99.90;;;;;;5154600;27;20497;-77
2024/01/27 03:06:50;;;;;;;27.40;4.40;;;4.10;99.90;;;;;;5154913;27;20059;-77
2024/01/27 03:09:16;;;;;;;30.83;4.53;;;4.10;99.90;;;;;;5154305;27;20054;-76
2024/01/27 03:11:41;;;;;;;31.30;3.83;;;4.10;99.90;;;;;;5154718;27;20129;-77
2024/01/27 03:14:07;;;;;;;31.33;4.67;;;4.10;99.90;;;;;;5154662;27;20047;-76
2024/01/27 03:16:33;;;;;;;25.30;3.97;;;4.00;99.90;;;;;;5136088;27;20043;-76
2024/01/27 03:18:59;;;;;;;29.57;4.07;;;4.00;99.90;;;;;;5154713;27;20042;-76
2024/01/27 03:21:25;;;;;;;22.67;4.60;;;4.00;99.90;;;;;;5154468;27;20481;-77
2024/01/27 03:23:51;;;;;;;26.42;4.60;;;4.00;99.90;;;;;;5154896;27;20123;-76
2024/01/27 03:26:17;;;;;;;22.53;3.47;;;4.00;99.90;;;;;;5154466;27;20089;-76
2024/01/27 03:28:42;;;;;;;35.20;4.50;;;4.00;99.90;;;;;;5154625;27;20058;-77
2024/01/27 03:31:08;;;;;;;30.20;3.80;;;4.00;99.90;;;;;;5136482;27;20043;-77
2024/01/27 03:33:34;;;;;;;23.10;4.43;;;4.00;99.90;;;;;;5154078;27;20478;-77
2024/01/27 03:35:59;;;;;;;27.20;4.03;;;4.00;99.90;;;;;;5154219;27;20054;-77
2024/01/27 03:38:25;;;;;;;24.57;4.43;;;3.90;99.90;;;;;;5154332;27;20122;-76
2024/01/27 03:40:51;;;;;;;28.57;4.73;;;3.90;99.90;;;;;;5155023;27;20082;-76
2024/01/27 03:43:16;;;;;;;33.47;4.50;;;4.00;99.90;;;;;;5154328;27;20050;-76
2024/01/27 03:45:42;;;;;;;22.80;3.57;;;3.90;99.90;;;;;;5154742;27;20474;-76
2024/01/27 03:48:08;;;;;;;28.93;4.90;;;4.00;99.90;;;;;;5154455;27;20042;-77
2024/01/27 03:50:33;;;;;;;32.60;4.20;;;3.90;99.90;;;;;;5157810;27;20120;-76
2024/01/27 03:52:59;;;;;;;21.47;3.87;;;3.90;99.90;;;;;;5158493;27;20045;-76
2024/01/27 03:55:25;;;;;;;27.63;5.13;;;3.90;99.90;;;;;;5157922;27;20048;-76
2024/01/27 03:57:50;;;;;;;23.87;4.20;;;3.90;99.90;;;;;;5158354;27;20042;-76
2024/01/27 04:00:16;;;;;;;25.23;5.13;;;3.90;99.90;;;;;;5157989;27;20082;-76
2024/01/27 04:02:42;;;;;;;29.00;4.80;;;3.90;99.90;;;;;;5158143;27;20050;-76
2024/01/27 04:05:08;;;;;;;23.10;4.13;;;3.90;99.90;;;;;;5157767;27;20280;-77
2024/01/27 04:07:33;;;;;;;23.50;4.33;;;3.90;99.90;;;;;;5157775;27;20042;-77
2024/01/27 04:09:59;;;;;;;30.57;4.27;;;3.80;99.90;;;;;;5158037;27;20122;-76
2024/01/27 04:12:25;;;;;;;28.03;4.00;;;3.90;99.90;;;;;;5157750;27;20047;-76
2024/01/27 04:14:50;;;;;;;21.60;4.47;;;3.90;99.90;;;;;;5157825;27;20038;-76
2024/01/27 04:17:16;;;;;;;22.73;3.80;;;3.90;99.90;;;;;;5157643;27;20046;-75
2024/01/27 04:19:42;;;;;;;27.67;3.77;;;3.90;99.90;;;;;;5158711;27;20043;-77
2024/01/27 04:22:08;;;;;;;25.90;4.77;;;3.90;99.90;;;;;;5157878;27;20050;-77
2024/01/27 04:24:33;;;;;;;31.10;4.57;;;3.90;99.90;;;;;;5157852;27;20039;-76
2024/01/27 04:27:02;;;;;;;27.27;4.50;;;3.90;99.90;;;;;;5157883;27;20122;-77
2024/01/27 04:29:27;;;;;;;28.50;4.65;;;3.90;99.90;;;;;;5139305;27;20133;-76
2024/01/27 04:31:53;;;;;;;25.57;4.00;;;3.90;99.90;;;;;;5157706;27;20154;-77
2024/01/27 04:34:19;;;;;;;23.40;4.10;;;3.90;99.90;;;;;;5157111;27;20070;-76
2024/01/27 04:36:45;;;;;;;26.35;4.38;;;3.90;99.90;;;;;;5157540;27;20039;-76
2024/01/27 04:39:13;;;;;;;26.50;4.67;;;3.90;99.90;;;;;;5157712;27;20065;-76
2024/01/27 04:41:43;;;;;;;20.83;3.97;;;3.90;99.90;;;;;;5157416;27;20050;-76
2024/01/27 04:44:08;;;;;;;26.17;4.22;;;3.90;99.90;;;;;;5157531;27;20414;-77
2024/01/27 04:46:34;;;;;;;22.30;3.60;;;3.90;99.90;;;;;;5157384;27;20035;-77
2024/01/27 04:49:00;;;;;;;21.03;4.00;;;3.90;99.90;;;;;;5157536;27;20054;-77
2024/01/27 04:51:25;;;;;;;29.30;4.63;;;3.90;99.90;;;;;;5159506;27;20043;-77
2024/01/27 04:53:51;;;;;;;24.90;4.37;;;3.90;99.90;;;;;;5162610;27;20098;-76
2024/01/27 04:56:17;;;;;;;25.37;3.70;;;3.90;99.90;;;;;;5164316;27;20050;-78
2024/01/27 04:58:42;;;;;;;24.43;3.30;;;3.90;99.90;;;;;;5146445;27;20047;-77
2024/01/27 05:01:08;;;;;;;33.63;4.50;;;3.90;99.90;;;;;;5165293;27;20046;-77
2024/01/27 05:03:34;;;;;;;24.90;3.70;;;3.90;99.90;;;;;;5167771;27;20047;-77
2024/01/27 05:06:00;;;;;;;23.53;4.10;;;3.90;99.90;;;;;;5168924;27;20043;-77
2024/01/27 05:08:26;;;;;;;29.13;4.60;;;3.90;99.90;;;;;;5149073;27;20082;-77
2024/01/27 05:10:51;;;;;;;16.17;3.57;;;3.90;99.90;;;;;;5149412;27;20125;-78
2024/01/27 05:13:17;;;;;;;23.93;4.20;;;3.90;99.90;;;;;;5166621;27;20049;-77
2024/01/27 05:15:43;;;;;;;24.93;3.70;;;3.90;99.90;;;;;;5148132;27;20046;-76
2024/01/27 05:18:10;;;;;;;32.27;5.00;;;3.90;99.90;;;;;;5166079;27;20077;-77
2024/01/27 05:20:35;;;;;;;34.33;5.45;;;3.90;99.90;;;;;;5161232;27;20533;-77
2024/01/27 05:23:01;;;;;;;27.57;4.20;;;3.90;99.90;;;;;;5157373;27;20129;-77
2024/01/27 05:25:27;;;;;;;24.47;4.13;;;3.90;99.90;;;;;;5156748;27;20047;-76
2024/01/27 05:27:52;;;;;;;27.67;4.73;;;3.90;99.90;;;;;;5138130;27;20081;-77
2024/01/27 05:30:18;;;;;;;27.80;4.63;;;3.90;99.90;;;;;;5156468;27;20046;-77
2024/01/27 05:32:44;;;;;;;27.43;5.33;;;3.90;99.90;;;;;;5156429;27;20051;-77
2024/01/27 05:35:10;;;;;;;28.80;3.73;;;3.90;99.90;;;;;;5156078;27;20054;-77
2024/01/27 05:37:36;;;;;;;24.17;4.40;;;3.90;99.90;;;;;;5156087;27;20054;-77
2024/01/27 05:40:02;;;;;;;22.43;4.20;;;3.90;99.90;;;;;;5156261;27;20110;-77
2024/01/27 05:42:28;;;;;;;25.45;4.50;;;3.90;99.90;;;;;;5137638;27;20053;-76
2024/01/27 05:44:54;;;;;;;26.93;4.17;;;3.90;99.90;;;;;;5156231;27;20478;-77
2024/01/27 05:47:19;;;;;;;27.13;3.70;;;3.90;99.90;;;;;;5120615;27;20046;-77
2024/01/27 05:49:45;;;;;;;26.90;3.83;;;3.90;99.90;;;;;;5137726;27;20078;-77
2024/01/27 05:52:11;;;;;;;26.80;4.33;;;3.80;99.90;;;;;;5137286;27;20069;-77
2024/01/27 05:54:39;;;;;;;27.00;4.10;;;3.80;99.90;;;;;;5155657;27;20047;-77
2024/01/27 05:57:04;;;;;;;25.15;3.80;;;3.80;99.90;;;;;;5137604;27;20073;-77
2024/01/27 05:59:30;;;;;;;23.67;4.30;;;3.80;99.90;;;;;;5155444;27;20062;-77
2024/01/27 06:01:57;;;;;;;35.07;5.27;;;3.80;99.90;;;;;;5155587;27;20048;-78
2024/01/27 06:04:23;;;;;;;31.83;4.65;;;3.80;99.90;;;;;;5155556;27;20061;-77
2024/01/27 06:06:49;;;;;;;24.03;4.10;;;3.80;99.90;;;;;;5136894;27;20034;-77
2024/01/27 06:09:14;;;;;;;30.77;4.70;;;3.80;99.90;;;;;;5137541;27;20537;-77
2024/01/27 06:11:40;;;;;;;25.27;4.07;;;3.80;99.90;;;;;;5154885;27;20047;-77
2024/01/27 06:14:06;;;;;;;29.77;4.70;;;3.80;99.90;;;;;;5155002;27;20493;-78
2024/01/27 06:16:32;;;;;;;26.23;4.47;;;3.70;99.90;;;;;;5154922;27;20047;-77
2024/01/27 06:18:58;;;;;;;27.38;4.28;;;3.70;99.90;;;;;;5155294;27;20351;-78
2024/01/27 06:21:25;;;;;;;31.10;4.50;;;3.80;99.90;;;;;;5155422;27;20034;-77
2024/01/27 06:23:50;;;;;;;27.60;4.20;;;3.70;99.90;;;;;;5155001;27;20057;-77
2024/01/27 06:26:16;;;;;;;32.87;4.53;;;3.80;99.90;;;;;;5155337;27;20031;-77
2024/01/27 06:28:42;;;;;;;28.33;4.60;;;3.80;99.90;;;;;;5136797;27;20542;-77
2024/01/27 06:31:07;;;;;;;29.17;5.77;;;3.70;99.90;;;;;;5155172;27;20042;-77
2024/01/27 06:33:34;;;;;;;24.97;4.47;;;3.80;99.90;;;;;;5119189;27;20068;-77
2024/01/27 06:36:01;;;;;;;36.75;4.70;;;3.80;99.90;;;;;;5154536;27;20502;-77
2024/01/27 06:38:31;;;;;;;30.25;4.93;;;3.70;99.90;;;;;;5119668;27;20046;-77
2024/01/27 06:40:57;;;;;;;36.80;5.50;;;3.80;99.90;;;;;;5155189;27;20054;-77
2024/01/27 06:43:23;;;;;;;36.17;4.77;;;3.80;99.90;;;;;;5155062;27;20394;-78
2024/01/27 06:45:49;;;;;;;26.88;5.18;;;3.80;99.90;;;;;;5154820;27;20121;-77
2024/01/27 06:48:15;;;;;;;30.63;5.03;;;3.80;99.90;;;;;;5155220;27;20077;-77
2024/01/27 06:50:40;;;;;;;31.30;4.63;;;3.80;99.90;;;;;;5136540;27;20042;-77
2024/01/27 06:53:06;;;;;;;30.07;4.80;;;3.80;99.90;;;;;;5154960;27;20098;-77
2024/01/27 06:55:32;;;;;;;21.67;4.70;;;3.80;99.90;;;;;;5136598;27;20098;-77
2024/01/27 06:57:58;;;;;;;43.33;6.27;;;3.80;99.90;;;;;;5154633;27;20038;-77
2024/01/27 07:00:24;;;;;;;24.60;4.53;;;3.80;99.90;;;;;;5154892;27;20046;-77
2024/01/27 07:02:49;;;;;;;24.55;4.15;;;3.70;99.90;;;;;;5136424;27;20070;-77
2024/01/27 07:05:15;;;;;;;27.93;4.80;;;3.70;99.90;;;;;;5136529;27;20043;-77
2024/01/27 07:07:44;;;;;;;25.20;4.97;;;3.70;99.90;;;;;;5154655;27;20047;-77
2024/01/27 07:10:10;;;;;;;26.83;4.93;;;3.70;99.90;;;;;;5154895;27;20054;-78
2024/01/27 07:12:36;;;;;;;33.57;5.00;;;3.70;99.90;;;;;;5154711;27;20047;-76
2024/01/27 07:15:02;;;;;;;26.40;4.85;;;3.80;99.90;;;;;;5136461;27;20539;-78
2024/01/27 07:17:29;;;;;;;24.73;4.87;;;3.80;99.90;;;;;;5136398;27;20047;-78
2024/01/27 07:19:54;;;;;;;25.48;4.18;;;3.70;99.90;;;;;;5154550;27;20043;-78
2024/01/27 07:22:20;;;;;;;25.67;4.90;;;3.70;99.90;;;;;;5154714;27;20125;-78
2024/01/27 07:24:46;;;;;;;30.10;5.73;;;3.70;99.90;;;;;;5157401;27;20144;-77
2024/01/27 07:27:13;;;;;;;26.57;5.73;;;3.70;99.90;;;;;;5158919;27;20144;-77
2024/01/27 07:29:39;;;;;;;31.00;4.63;;;3.70;99.90;;;;;;5158464;27;20038;-77
2024/01/27 07:32:07;;;;;;;30.97;5.27;;;3.70;99.90;;;;;;5158744;27;20462;-77
2024/01/27 07:34:33;;;;;;;23.80;4.88;;;3.70;99.90;;;;;;5158385;27;20470;-77
2024/01/27 07:36:59;;;;;;;30.87;5.00;;;3.70;99.90;;;;;;5140224;27;20050;-77
2024/01/27 07:39:24;;;;;;;28.50;4.23;;;3.70;99.90;;;;;;5140184;27;20063;-77
2024/01/27 07:41:50;;;;;;;27.17;3.83;;;3.70;99.90;;;;;;5158023;27;20133;-77
2024/01/27 07:44:18;;;;;;;30.73;5.20;;;3.70;99.90;;;;;;5158690;27;20043;-78
2024/01/27 07:46:43;;;;;;;29.90;4.88;;;3.70;99.90;;;;;;5158254;27;20049;-79
2024/01/27 07:49:12;;;;;;;30.20;6.43;;;3.70;99.90;;;;;;5158497;27;20043;-77
2024/01/27 07:51:38;;;;;;;26.13;5.47;;;3.70;99.90;;;;;;5140306;27;20069;-77
2024/01/27 07:54:04;;;;;;;25.03;5.80;;;3.70;99.90;;;;;;5158281;27;20042;-77
2024/01/27 07:56:30;;;;;;;33.47;7.93;;;3.70;99.90;;;;;;5139665;27;20039;-77
2024/01/27 07:58:56;;;;;;;31.58;6.45;;;3.70;99.90;;;;;;5139531;27;20452;-77
2024/01/27 08:01:21;;;;;;;28.07;6.13;;;3.70;99.90;;;;;;5158098;27;20043;-77
2024/01/27 08:03:47;;;;;;;33.07;6.83;;;3.70;99.90;;;;;;5157853;27;20125;-77
2024/01/27 08:06:17;;;;;;;29.30;5.97;;;3.80;99.90;;;;;;5157909;27;20048;-77
2024/01/27 08:08:47;;;;;;;30.48;6.18;;;3.80;99.90;;;;;;5157698;27;20047;-77
2024/01/27 08:11:14;;;;;;;33.08;6.45;;;3.80;99.90;;;;;;5157894;27;20051;-77
2024/01/27 08:13:41;;;;;;;21.65;5.40;;;3.80;99.90;;;;;;5157843;27;20046;-77
2024/01/27 08:16:09;;;;;;;28.20;5.80;;;3.80;99.90;;;;;;5157731;27;20049;-77
2024/01/27 08:18:43;;;;;;;24.10;5.25;;;3.80;99.90;;;;;;5157657;27;20053;-77
2024/01/27 08:21:10;;;;;;;26.05;5.43;;;3.80;99.90;;;;;;5157949;27;20047;-77
2024/01/27 08:23:35;;;;;;;30.27;6.40;;;3.90;99.90;;;;;;5157679;27;20486;-77
2024/01/27 08:26:01;;;;;;;31.03;5.90;;;3.90;99.90;;;;;;5157437;27;20041;-77
2024/01/27 08:28:27;;;;;;;26.93;4.77;;;3.90;99.90;;;;;;5138920;27;20474;-77
2024/01/27 08:30:53;;;;;;;31.13;5.60;;;3.90;99.90;;;;;;5139043;27;20047;-77
2024/01/27 08:33:19;;;;;;;30.03;5.60;;;4.00;99.90;;;;;;5139099;27;20099;-77
2024/01/27 08:35:48;;;;;;;29.63;5.57;;;4.00;99.90;;;;;;5156033;27;20051;-77
2024/01/27 08:38:14;;;;;;;37.00;5.97;;;4.10;99.90;;;;;;5157271;27;20058;-78
2024/01/27 08:40:39;;;;;;;29.80;5.78;;;4.10;99.90;;;;;;5157361;27;20090;-78
2024/01/27 08:43:05;;;;;;;27.37;5.73;;;4.10;99.90;;;;;;5138800;27;20090;-77
2024/01/27 08:45:32;;;;;;;31.75;5.75;;;4.10;99.90;;;;;;5157345;27;20085;-77
2024/01/27 08:47:58;;;;;;;40.85;7.55;;;4.20;99.90;;;;;;5157035;27;20107;-77
2024/01/27 08:50:24;;;;;;;32.22;6.53;;;4.20;99.90;;;;;;5138746;27;20086;-78
2024/01/27 08:52:49;;;;;;;26.40;5.60;;;4.20;99.90;;;;;;5156955;27;20074;-77
2024/01/27 08:55:18;;;;;;;32.70;7.07;;;4.20;99.90;;;;;;5157076;27;20475;-77
2024/01/27 08:57:45;;;;;;;31.75;6.75;;;4.30;99.90;;;;;;5157074;27;20050;-77
2024/01/27 09:00:13;;;;;;;30.48;6.75;;;4.30;99.90;;;;;;5157151;27;20043;-77
2024/01/27 09:02:38;;;;;;;35.50;7.30;;;4.40;99.90;;;;;;5156929;27;20078;-77
2024/01/27 09:05:05;;;;;;;32.67;7.17;;;4.40;99.90;;;;;;5156631;27;20516;-78
2024/01/27 09:07:31;;;;;;;32.85;7.28;;;4.50;99.90;;;;;;5138532;27;20050;-78
2024/01/27 09:09:57;;;;;;;27.47;7.17;;;4.50;99.90;;;;;;5156619;27;20491;-77
2024/01/27 09:12:22;;;;;;;35.23;7.90;;;4.60;99.90;;;;;;5156767;27;20439;-77
2024/01/27 09:14:48;;;;;;;31.20;7.30;;;4.60;99.90;;;;;;5156296;27;20121;-76
2024/01/27 09:17:14;;;;;;;32.20;8.13;;;4.70;99.90;;;;;;5156622;27;20050;-77
2024/01/27 09:19:39;;;;;;;31.93;7.53;;;4.70;99.90;;;;;;5156538;27;20055;-77
2024/01/27 09:22:05;;;;;;;25.80;6.67;;;4.70;99.90;;;;;;5138049;27;20474;-77
2024/01/27 09:24:31;;;;;;;27.83;7.20;;;4.80;99.90;;;;;;5138414;27;20047;-78
2024/01/27 09:26:56;;;;;;;29.63;7.90;;;4.80;99.90;;;;;;5156278;27;20046;-78
2024/01/27 09:29:22;;;;;;;28.50;6.93;;;4.90;99.90;;;;;;5156365;27;20082;-78
2024/01/27 09:31:48;;;;;;;24.10;6.93;;;4.90;99.90;;;;;;5156792;27;20039;-78
2024/01/27 09:34:14;;;;;;;27.30;7.00;;;5.00;99.90;;;;;;5137736;27;20039;-78
2024/01/27 09:36:39;;;;;;;24.53;7.07;;;5.00;99.90;;;;;;5155696;27;20054;-77
2024/01/27 09:39:05;;;;;;;27.57;6.13;;;5.00;99.90;;;;;;5155879;27;20053;-77
2024/01/27 09:41:32;;;;;;;26.63;6.00;;;5.10;99.90;;;;;;5156411;27;20047;-78
2024/01/27 09:44:05;;;;;;;26.48;6.95;;;5.10;99.90;;;;;;5155802;27;20042;-77
2024/01/27 09:46:32;;;;;;;26.80;6.70;;;5.20;99.90;;;;;;5156418;27;20043;-78
2024/01/27 09:48:58;;;;;;;43.40;7.15;;;5.20;99.90;;;;;;5155512;27;20035;-79
2024/01/27 09:51:25;;;;;;;28.25;5.93;;;5.30;99.90;;;;;;5156062;27;20057;-77
2024/01/27 09:53:51;;;;;;;24.35;5.68;;;5.30;99.90;;;;;;5155971;27;20042;-77
2024/01/27 09:56:21;;;;;;;27.55;6.05;;;5.40;99.90;;;;;;5155797;27;20142;-77
2024/01/27 09:58:49;;;;;;;35.88;6.65;;;5.40;99.90;;;;;;5156057;27;20041;-77
2024/01/27 10:01:19;;;;;;;38.97;6.22;;;5.40;99.90;;;;;;5155563;27;20055;-78
2024/01/27 10:03:46;;;;;;;24.02;5.93;;;5.50;99.90;;;;;;5155769;27;20053;-77
2024/01/27 10:06:14;;;;;;;30.52;6.60;;;5.60;99.90;;;;;;5155427;27;20042;-77
2024/01/27 10:08:40;;;;;;;37.42;5.85;;;5.60;99.90;;;;;;5137256;27;20086;-77
2024/01/27 10:11:10;;;;;;;24.57;6.23;;;5.70;99.90;;;;;;5155320;27;20085;-77
2024/01/27 10:13:36;;;;;;;28.98;5.93;;;5.70;99.90;;;;;;5155507;27;20058;-77
2024/01/27 10:16:03;;;;;;;32.25;7.13;;;5.70;99.90;;;;;;5155078;27;20455;-77
2024/01/27 10:18:30;;;;;;;31.75;6.05;;;5.80;99.90;;;;;;5136759;27;20427;-78
2024/01/27 10:20:56;;;;;;;24.75;5.65;;;5.80;99.90;;;;;;5136912;27;20049;-76
2024/01/27 10:23:21;;;;;;;29.93;5.33;;;5.90;99.90;;;;;;5155259;27;20042;-78
2024/01/27 10:25:47;;;;;;;26.93;5.70;;;5.90;99.90;;;;;;5155279;27;20039;-77
2024/01/27 10:28:13;;;;;;;30.20;5.80;;;5.90;99.90;;;;;;5154966;27;20509;-77
2024/01/27 10:30:39;;;;;;;33.23;6.10;;;6.00;99.90;;;;;;5155140;27;20287;-78
2024/01/27 10:33:07;;;;;;;25.07;5.53;;;6.00;99.90;;;;;;5155058;27;20081;-77
2024/01/27 10:35:33;;;;;;;31.15;6.10;;;6.00;99.90;;;;;;5155142;27;20122;-78
2024/01/27 10:37:59;;;;;;;29.50;6.03;;;6.10;99.90;;;;;;5155018;27;20439;-77
2024/01/27 10:40:25;;;;;;;28.63;6.07;;;6.10;99.90;;;;;;5155174;27;20049;-77
2024/01/27 10:43:01;;;;;;;28.27;5.47;;;6.20;99.90;;;;;;5155161;27;20427;-78
2024/01/27 10:45:28;;;;;;;21.70;5.50;;;6.20;99.90;;;;;;5137664;27;20430;-78
2024/01/27 10:47:56;;;;;;;25.05;5.22;;;6.20;99.90;;;;;;5155121;27;20042;-78
2024/01/27 10:50:23;;;;;;;34.53;6.80;;;6.30;99.90;;;;;;5154865;27;20494;-77
2024/01/27 10:52:51;;;;;;;23.42;5.32;;;6.30;99.90;;;;;;5154950;27;20043;-78
2024/01/27 10:55:17;;;;;;;27.55;5.90;;;6.40;99.90;;;;;;5154666;27;20042;-77
2024/01/27 10:57:45;;;;;;;31.73;6.07;;;6.30;99.90;;;;;;5154838;27;20095;-78
2024/01/27 11:00:12;;;;;;;29.05;6.15;;;6.40;99.90;;;;;;5154309;27;20150;-77
2024/01/27 11:02:38;;;;;;;28.20;6.25;;;6.40;99.90;;;;;;5136392;27;20095;-78
2024/01/27 11:05:05;;;;;;;28.77;5.88;;;6.40;99.90;;;;;;5154601;27;20082;-77
2024/01/27 11:07:33;;;;;;;27.58;5.45;;;6.40;99.90;;;;;;5154902;27;20130;-78
2024/01/27 11:09:59;;;;;;;29.30;6.43;;;6.50;99.90;;;;;;5154789;27;20047;-78
2024/01/27 11:12:25;;;;;;;28.80;5.90;;;6.50;99.90;;;;;;5154495;27;20065;-77
2024/01/27 11:14:52;;;;;;;27.08;6.65;;;6.50;99.90;;;;;;5135824;27;20042;-77
2024/01/27 11:17:19;;;;;;;24.83;5.03;;;6.50;99.90;;;;;;5154593;27;20506;-77
2024/01/27 11:19:45;;;;;;;28.80;6.40;;;6.50;99.90;;;;;;5154818;27;20038;-78
2024/01/27 11:22:27;;;;;;;25.77;6.63;;;6.60;99.90;;;;;;5154440;27;20053;-78
2024/01/27 11:25:16;;;;;;;30.30;6.32;;;6.60;99.90;;;;;;5154863;27;20361;-78
2024/01/27 11:27:43;;;;;;;29.88;6.22;;;6.60;99.90;;;;;;5140879;27;20113;-78
2024/01/27 11:30:28;;;;;;;25.50;5.53;;;6.60;99.90;;;;;;5154442;27;20053;-78
2024/01/27 11:32:56;;;;;;;26.33;6.32;;;6.70;99.90;;;;;;5154538;27;20280;-78
2024/01/27 11:35:22;;;;;;;34.63;5.80;;;6.70;99.90;;;;;;5154283;27;20483;-77
2024/01/27 11:37:48;;;;;;;25.67;5.33;;;6.70;99.90;;;;;;5154477;27;20050;-78
2024/01/27 11:40:15;;;;;;;21.90;5.77;;;6.80;99.90;;;;;;5154258;27;20373;-78
2024/01/27 11:42:41;;;;;;;34.83;6.40;;;6.80;99.90;;;;;;5154464;27;20137;-78
2024/01/27 11:45:11;;;;;;;30.95;6.32;;;6.80;99.90;;;;;;5154163;27;20275;-77
2024/01/27 11:47:37;;;;;;;31.13;5.80;;;6.80;99.90;;;;;;5154441;27;20371;-78
2024/01/27 11:50:03;;;;;;;31.33;7.20;;;6.80;99.90;;;;;;5154354;27;20050;-78
2024/01/27 11:52:29;;;;;;;31.30;6.53;;;6.90;99.90;;;;;;5154150;27;20043;-78
2024/01/27 11:54:59;;;;;;;26.60;5.30;;;6.90;99.90;;;;;;5154338;27;20394;-78
2024/01/27 11:57:25;;;;;;;25.77;5.30;;;6.90;99.90;;;;;;5154019;27;20046;-78
2024/01/27 11:59:52;;;;;;;25.20;5.03;;;6.90;99.90;;;;;;5135930;27;20276;-78
2024/01/27 12:02:18;;;;;;;26.60;5.50;;;6.90;99.90;;;;;;5153982;27;20050;-77
2024/01/27 12:04:44;;;;;;;26.83;6.87;;;7.00;99.90;;;;;;5154284;27;20328;-77
2024/01/27 12:07:10;;;;;;;29.33;7.33;;;7.00;99.90;;;;;;5153791;27;20522;-77
2024/01/27 12:09:37;;;;;;;24.23;5.63;;;7.00;99.90;;;;;;5118863;27;20330;-78
2024/01/27 12:12:08;;;;;;;36.07;7.33;;;7.00;99.90;;;;;;5157114;27;20276;-78
2024/01/27 12:14:48;;;;;;;31.30;6.60;;;7.10;99.90;;;;;;5158232;27;20272;-77
2024/01/27 12:17:15;;;;;;;31.60;7.57;;;7.10;99.90;;;;;;5157765;27;20375;-77
2024/01/27 12:19:54;;;;;;;26.70;6.30;;;7.10;99.90;;;;;;5157802;27;20324;-78
2024/01/27 12:22:28;;;;;;;39.90;7.67;;;7.10;99.90;;;;;;5157585;27;20282;-77
2024/01/27 12:25:15;;;;;;;32.63;6.07;;;7.20;99.90;;;;;;5158049;27;20264;-78
2024/01/27 12:27:41;;;;;;;28.17;5.70;;;7.20;99.90;;;;;;5156669;27;20319;-77
2024/01/27 12:30:07;;;;;;;23.23;5.53;;;7.20;99.90;;;;;;5157542;27;20779;-77
2024/01/27 12:32:34;;;;;;;25.60;5.27;;;7.20;99.90;;;;;;5157423;27;20050;-78
2024/01/27 12:35:06;;;;;;;27.60;5.23;;;7.20;99.90;;;;;;5157000;27;20335;-77
2024/01/27 12:37:32;;;;;;;28.90;6.17;;;7.20;99.90;;;;;;5157229;27;20284;-78
2024/01/27 12:39:57;;;;;;;31.43;5.53;;;7.20;99.90;;;;;;5157454;27;20703;-78
2024/01/27 12:42:23;;;;;;;31.27;5.77;;;7.20;99.90;;;;;;5157143;27;20046;-78
2024/01/27 12:44:49;;;;;;;25.33;5.13;;;7.20;99.90;;;;;;5157275;27;20126;-78